Time;durP1;ratioP1;P1;durP2;ratioP2;P2;SDS_P1;SDS_P2;PMS_P1;PMS_P2;Temp;Humidity;BMP_temperature;BMP_pressure;BME280_temperature;BME280_humidity;BME280_pressure;Samples;Min_cycle;Max_cycle;Signal;HPM_P1;HPM_P2
2022/10/26 00:02:17;;;;;;;0.60;0.60;;;10.60;99.90;;;;;;5133506;27;20638;-80
2022/10/26 00:04:43;;;;;;;0.50;0.50;;;10.60;99.90;;;;;;5129509;27;20174;-81
2022/10/26 00:07:09;;;;;;;0.50;0.50;;;10.70;99.90;;;;;;5131126;28;20173;-80
2022/10/26 00:09:34;;;;;;;0.50;0.50;;;10.60;99.90;;;;;;5143205;27;20188;-80
2022/10/26 00:12:00;;;;;;;0.60;0.60;;;10.60;99.90;;;;;;5136152;27;20280;-79
2022/10/26 00:14:26;;;;;;;0.50;0.50;;;10.60;99.90;;;;;;5130092;27;20209;-80
2022/10/26 00:16:51;;;;;;;0.60;0.60;;;10.60;99.90;;;;;;5129920;27;20645;-79
2022/10/26 00:19:17;;;;;;;0.40;0.40;;;10.60;99.90;;;;;;5139453;27;20191;-78
2022/10/26 00:21:43;;;;;;;0.50;0.50;;;10.50;99.90;;;;;;5136154;27;20196;-78
2022/10/26 00:24:10;;;;;;;0.50;0.50;;;10.50;99.90;;;;;;5139404;27;20259;-78
2022/10/26 00:26:36;;;;;;;0.50;0.50;;;10.60;99.90;;;;;;5123124;27;20542;-78
2022/10/26 00:29:02;;;;;;;0.50;0.50;;;10.60;99.90;;;;;;5139831;27;20643;-78
2022/10/26 00:31:28;;;;;;;0.50;0.50;;;10.60;99.90;;;;;;5129083;27;20208;-78
2022/10/26 00:33:54;;;;;;;0.50;0.50;;;10.60;99.90;;;;;;5136782;27;20180;-79
2022/10/26 00:36:20;;;;;;;0.50;0.50;;;10.60;99.90;;;;;;5139142;27;20718;-79
2022/10/26 00:38:51;;;;;;;0.40;0.40;;;10.70;99.90;;;;;;5138553;27;20199;-78
2022/10/26 00:41:19;;;;;;;0.50;0.50;;;10.70;99.90;;;;;;5134999;27;20196;-78
2022/10/26 00:43:44;;;;;;;0.60;0.60;;;10.70;99.90;;;;;;5138512;27;20232;-79
2022/10/26 00:46:21;;;;;;;0.50;0.50;;;10.70;99.90;;;;;;5122292;28;20173;-79
2022/10/26 00:48:50;;;;;;;0.50;0.50;;;10.70;99.90;;;;;;5120760;28;20169;-79
2022/10/26 00:51:34;;;;;;;0.57;0.57;;;10.80;99.90;;;;;;5120117;27;20190;-80
2022/10/26 00:54:02;;;;;;;0.60;0.60;;;10.80;99.90;;;;;;5127749;27;20199;-79
2022/10/26 00:56:30;;;;;;;0.43;0.43;;;10.80;99.90;;;;;;5140232;27;20295;-78
2022/10/26 00:59:02;;;;;;;0.60;0.60;;;10.80;99.90;;;;;;5136484;27;20176;-77
2022/10/26 01:01:29;;;;;;;0.50;0.50;;;10.70;99.90;;;;;;5137293;27;20197;-80
2022/10/26 01:03:56;;;;;;;0.50;0.50;;;10.70;99.90;;;;;;5152804;27;20177;-79
2022/10/26 01:06:21;;;;;;;0.50;0.50;;;10.70;99.90;;;;;;5156701;27;20197;-79
2022/10/26 01:08:48;;;;;;;0.50;0.50;;;10.60;99.90;;;;;;5159463;27;20183;-79
2022/10/26 01:11:14;;;;;;;0.60;0.60;;;10.60;99.90;;;;;;5146202;27;20418;-78
2022/10/26 01:13:42;;;;;;;0.57;0.57;;;10.50;99.90;;;;;;5141254;27;20189;-80
2022/10/26 01:16:14;;;;;;;0.53;0.53;;;10.40;99.90;;;;;;5156902;27;20208;-81
2022/10/26 01:19:21;;;;;;;0.60;0.60;;;10.50;99.90;;;;;;5159655;27;20172;-80
2022/10/26 01:22:01;;;;;;;0.43;0.43;;;10.60;99.90;;;;;;5150040;27;20188;-79
2022/10/26 01:25:02;;;;;;;0.50;0.50;;;10.70;99.90;;;;;;5097344;28;20179;-79
2022/10/26 01:27:40;;;;;;;0.50;0.50;;;10.80;99.90;;;;;;5130126;27;20168;-77
2022/10/26 01:30:19;;;;;;;0.50;0.50;;;10.80;99.90;;;;;;5114890;28;20199;-79
2022/10/26 01:33:07;;;;;;;0.50;0.50;;;10.80;99.90;;;;;;5127237;27;20172;-78
2022/10/26 01:36:00;;;;;;;0.57;0.57;;;10.80;99.90;;;;;;5131975;27;20239;-78
2022/10/26 01:38:44;;;;;;;0.50;0.50;;;10.90;99.90;;;;;;5115785;27;20196;-79
2022/10/26 01:41:20;;;;;;;0.50;0.50;;;10.90;99.90;;;;;;5132149;27;20215;-79
2022/10/26 01:43:52;;;;;;;0.50;0.50;;;10.90;99.90;;;;;;5116100;27;20175;-79
2022/10/26 01:46:21;;;;;;;0.60;0.60;;;11.00;99.90;;;;;;5119504;28;20191;-79
2022/10/26 01:48:50;;;;;;;0.50;0.50;;;11.00;99.90;;;;;;5119909;28;20173;-79
2022/10/26 01:51:17;;;;;;;0.50;0.50;;;11.00;99.90;;;;;;5122259;28;20208;-79
2022/10/26 01:53:45;;;;;;;0.40;0.40;;;11.00;99.90;;;;;;5139050;28;20199;-78
2022/10/26 01:56:18;;;;;;;0.47;0.47;;;11.00;99.90;;;;;;5125224;28;20213;-79
2022/10/26 01:58:53;;;;;;;0.50;0.50;;;11.00;99.90;;;;;;5117282;28;20232;-79
2022/10/26 02:01:46;;;;;;;0.60;0.60;;;11.00;99.90;;;;;;5123044;28;20196;-80
2022/10/26 02:04:51;;;;;;;0.50;0.50;;;10.80;99.90;;;;;;5137113;28;20377;-80
2022/10/26 02:07:36;;;;;;;0.60;0.60;;;10.70;99.90;;;;;;5105397;28;20181;-80
2022/10/26 02:10:09;;;;;;;0.60;0.60;;;10.70;99.90;;;;;;5127030;28;20185;-79
2022/10/26 02:12:48;;;;;;;0.50;0.50;;;10.70;99.90;;;;;;5112499;28;20181;-79
2022/10/26 02:15:21;;;;;;;0.60;0.60;;;10.70;99.90;;;;;;5125152;28;20208;-79
2022/10/26 02:17:55;;;;;;;0.50;0.50;;;10.60;99.90;;;;;;5139989;28;20232;-80
2022/10/26 02:20:27;;;;;;;0.50;0.50;;;10.50;99.90;;;;;;5139994;28;20200;-78
2022/10/26 02:22:54;;;;;;;0.50;0.50;;;10.60;99.90;;;;;;5128296;28;20264;-79
2022/10/26 02:25:27;;;;;;;0.50;0.50;;;10.60;99.90;;;;;;5139923;28;20184;-79
2022/10/26 02:28:00;;;;;;;0.40;0.40;;;10.60;99.90;;;;;;5125243;28;20173;-78
2022/10/26 02:30:26;;;;;;;0.50;0.50;;;10.70;99.90;;;;;;5119846;28;20224;-80
2022/10/26 02:32:54;;;;;;;0.50;0.50;;;10.60;99.90;;;;;;5128456;28;20169;-79
2022/10/26 02:35:24;;;;;;;0.50;0.50;;;10.60;99.90;;;;;;5122713;28;20212;-80
2022/10/26 02:37:52;;;;;;;0.40;0.40;;;10.50;99.90;;;;;;5142914;28;20593;-79
2022/10/26 02:40:22;;;;;;;0.50;0.50;;;10.50;99.90;;;;;;5123778;28;20201;-80
2022/10/26 02:42:50;;;;;;;0.50;0.50;;;10.50;99.90;;;;;;5138195;28;20232;-80
2022/10/26 02:45:21;;;;;;;0.60;0.60;;;10.40;99.90;;;;;;5147843;27;20176;-78
2022/10/26 02:47:47;;;;;;;0.60;0.60;;;10.40;99.90;;;;;;5134057;27;20197;-79
2022/10/26 02:50:12;;;;;;;0.50;0.50;;;10.40;99.90;;;;;;5127243;28;20204;-79
2022/10/26 02:53:14;;;;;;;0.50;0.50;;;10.50;99.90;;;;;;5142043;28;20173;-79
2022/10/26 02:55:47;;;;;;;0.60;0.60;;;10.50;99.90;;;;;;5126843;27;20667;-79
2022/10/26 02:58:19;;;;;;;0.30;0.30;;;10.50;99.90;;;;;;5140763;27;20187;-79
2022/10/26 03:00:45;;;;;;;0.50;0.50;;;10.60;99.90;;;;;;5133688;27;20192;-78
2022/10/26 03:03:11;;;;;;;0.50;0.50;;;10.60;99.90;;;;;;5124013;27;20246;-79
2022/10/26 03:05:41;;;;;;;0.50;0.50;;;10.60;99.90;;;;;;5121270;27;20215;-79
2022/10/26 03:08:07;;;;;;;0.50;0.50;;;10.60;99.90;;;;;;5124337;27;20176;-80
2022/10/26 03:10:37;;;;;;;0.60;0.60;;;10.60;99.90;;;;;;5124602;28;20192;-79
2022/10/26 03:13:02;;;;;;;0.60;0.60;;;10.60;99.90;;;;;;5137069;27;20184;-80
2022/10/26 03:15:28;;;;;;;0.60;0.60;;;10.70;99.90;;;;;;5124647;27;20264;-79
2022/10/26 03:17:53;;;;;;;0.43;0.43;;;10.70;99.90;;;;;;5127232;27;20175;-78
2022/10/26 03:20:19;;;;;;;0.50;0.50;;;10.60;99.90;;;;;;5146903;27;20223;-78
2022/10/26 03:22:46;;;;;;;0.50;0.50;;;10.70;99.90;;;;;;5142491;27;20196;-79
2022/10/26 03:25:14;;;;;;;0.57;0.57;;;10.70;99.90;;;;;;5141711;27;20233;-79
2022/10/26 03:27:40;;;;;;;0.70;0.70;;;10.70;99.90;;;;;;5148011;27;20181;-78
2022/10/26 03:30:06;;;;;;;0.50;0.50;;;10.80;99.90;;;;;;5147759;27;20180;-79
2022/10/26 03:32:32;;;;;;;0.60;0.60;;;10.80;99.90;;;;;;5148159;27;20200;-80
2022/10/26 03:34:57;;;;;;;0.60;0.60;;;10.80;99.90;;;;;;5133123;27;20220;-79
2022/10/26 03:37:23;;;;;;;0.53;0.53;;;10.90;99.90;;;;;;5132409;27;20263;-80
2022/10/26 03:39:48;;;;;;;0.50;0.50;;;10.90;99.90;;;;;;5146185;27;20259;-80
2022/10/26 03:42:14;;;;;;;0.50;0.50;;;10.80;99.90;;;;;;5147279;27;20279;-80
2022/10/26 03:44:39;;;;;;;0.67;0.67;;;10.90;99.90;;;;;;5136724;27;20297;-80
2022/10/26 03:47:05;;;;;;;0.50;0.50;;;10.80;99.90;;;;;;5130906;27;20264;-79
2022/10/26 03:49:30;;;;;;;0.70;0.70;;;10.80;99.90;;;;;;5134595;27;20255;-80
2022/10/26 03:51:56;;;;;;;0.70;0.70;;;10.80;99.90;;;;;;5147088;27;20225;-79
2022/10/26 03:54:21;;;;;;;0.60;0.60;;;10.80;99.90;;;;;;5133842;27;20185;-79
2022/10/26 03:56:47;;;;;;;0.63;0.63;;;11.10;99.90;;;;;;5124707;28;20562;-80
2022/10/26 03:59:13;;;;;;;0.60;0.60;;;11.00;99.90;;;;;;5143648;27;20176;-80
2022/10/26 04:01:39;;;;;;;0.60;0.60;;;11.00;99.90;;;;;;5136401;27;20208;-79
2022/10/26 04:04:04;;;;;;;0.50;0.50;;;11.10;99.90;;;;;;5146647;27;20200;-80
2022/10/26 04:06:30;;;;;;;0.70;0.70;;;11.10;99.90;;;;;;5146285;27;20252;-80
2022/10/26 04:09:01;;;;;;;0.70;0.70;;;11.20;99.90;;;;;;5129575;27;20237;-80
2022/10/26 04:11:27;;;;;;;0.50;0.50;;;11.20;99.90;;;;;;5146497;27;20204;-80
2022/10/26 04:13:52;;;;;;;0.50;0.50;;;11.30;99.90;;;;;;5145518;27;20650;-80
2022/10/26 04:16:18;;;;;;;0.60;0.60;;;11.20;99.90;;;;;;5146999;27;20230;-80
2022/10/26 04:18:44;;;;;;;0.63;0.63;;;11.20;99.90;;;;;;5143747;27;20237;-79
2022/10/26 04:21:10;;;;;;;0.53;0.53;;;11.30;99.90;;;;;;5123883;28;20209;-79
2022/10/26 04:23:36;;;;;;;0.70;0.70;;;11.40;99.90;;;;;;5123321;27;20177;-79
2022/10/26 04:26:04;;;;;;;0.50;0.50;;;11.40;99.90;;;;;;5135197;27;20193;-81
2022/10/26 04:28:29;;;;;;;0.60;0.60;;;11.30;99.90;;;;;;5121710;28;20181;-81
2022/10/26 04:30:55;;;;;;;0.60;0.60;;;11.30;99.90;;;;;;5122380;27;20280;-80
2022/10/26 04:33:20;;;;;;;0.60;0.60;;;11.20;99.90;;;;;;5126174;27;20272;-78
2022/10/26 04:35:47;;;;;;;0.53;0.53;;;11.20;99.90;;;;;;5145589;27;20218;-78
2022/10/26 04:38:12;;;;;;;0.60;0.60;;;11.30;99.90;;;;;;5135916;27;20188;-79
2022/10/26 04:40:38;;;;;;;0.57;0.57;;;11.30;99.90;;;;;;5144165;27;20196;-78
2022/10/26 04:43:04;;;;;;;0.70;0.70;;;11.30;99.90;;;;;;5132811;27;20180;-78
2022/10/26 04:45:30;;;;;;;0.50;0.50;;;11.20;99.90;;;;;;5140799;27;20247;-78
2022/10/26 04:48:13;;;;;;;0.50;0.50;;;11.20;99.90;;;;;;5150858;27;20176;-80
2022/10/26 04:50:40;;;;;;;0.60;0.60;;;11.20;99.90;;;;;;5151053;27;20192;-80
2022/10/26 04:53:06;;;;;;;0.50;0.50;;;11.20;99.90;;;;;;5127585;27;20177;-80
2022/10/26 04:55:33;;;;;;;0.60;0.60;;;11.10;99.90;;;;;;5129276;27;20208;-80
2022/10/26 04:57:58;;;;;;;0.40;0.40;;;11.10;99.90;;;;;;5120282;28;20189;-79
2022/10/26 05:00:24;;;;;;;0.40;0.40;;;11.10;99.90;;;;;;5120817;27;20223;-80
2022/10/26 05:02:50;;;;;;;0.40;0.40;;;11.10;99.90;;;;;;5128690;27;20207;-78
2022/10/26 05:05:15;;;;;;;0.50;0.50;;;11.10;99.90;;;;;;5123168;27;20595;-78
2022/10/26 05:07:41;;;;;;;0.50;0.50;;;11.10;99.90;;;;;;5115750;27;20195;-78
2022/10/26 05:10:07;;;;;;;0.50;0.50;;;11.10;99.90;;;;;;5128748;27;20230;-78
2022/10/26 05:12:33;;;;;;;0.40;0.40;;;11.10;99.90;;;;;;5114082;27;20268;-78
2022/10/26 05:14:58;;;;;;;0.50;0.50;;;11.10;99.90;;;;;;5123644;27;20298;-78
2022/10/26 05:17:25;;;;;;;0.50;0.50;;;11.10;99.90;;;;;;5138041;27;20188;-81
2022/10/26 05:19:54;;;;;;;0.43;0.43;;;11.10;99.90;;;;;;5144772;27;20723;-81
2022/10/26 05:22:28;;;;;;;0.50;0.50;;;11.10;99.90;;;;;;5138669;27;20204;-80
2022/10/26 05:24:54;;;;;;;0.53;0.53;;;11.10;99.90;;;;;;5145896;27;20175;-79
2022/10/26 05:27:20;;;;;;;0.57;0.57;;;11.20;99.90;;;;;;5149067;27;20233;-81
2022/10/26 05:29:45;;;;;;;0.50;0.50;;;11.30;99.90;;;;;;5146325;27;20184;-78
2022/10/26 05:32:11;;;;;;;0.50;0.50;;;11.30;99.90;;;;;;5145703;27;20433;-78
2022/10/26 05:34:36;;;;;;;0.50;0.50;;;11.30;99.90;;;;;;5133338;27;20727;-79
2022/10/26 05:37:03;;;;;;;0.57;0.57;;;11.40;99.90;;;;;;5128480;27;20199;-78
2022/10/26 05:39:28;;;;;;;0.60;0.60;;;11.40;99.90;;;;;;5125265;27;20330;-82
2022/10/26 05:41:54;;;;;;;0.50;0.50;;;11.50;99.90;;;;;;5122304;27;20197;-78
2022/10/26 05:44:19;;;;;;;0.50;0.50;;;11.40;99.90;;;;;;5132291;27;20509;-79
2022/10/26 05:46:46;;;;;;;0.60;0.60;;;11.40;99.90;;;;;;5132813;27;20175;-78
2022/10/26 05:49:11;;;;;;;0.60;0.60;;;11.40;99.90;;;;;;5115083;28;20215;-76
2022/10/26 05:51:38;;;;;;;0.50;0.50;;;11.40;99.90;;;;;;5133346;28;20187;-77
2022/10/26 05:54:04;;;;;;;0.63;0.63;;;11.50;99.90;;;;;;5130988;28;20783;-78
2022/10/26 05:56:38;;;;;;;0.60;0.60;;;11.40;99.90;;;;;;5122937;28;20212;-78
2022/10/26 05:59:10;;;;;;;0.63;0.63;;;11.40;99.90;;;;;;5128146;22;20216;-77
2022/10/26 06:02:05;;;;;;;0.50;0.50;;;11.50;99.90;;;;;;5094368;28;20284;-77
2022/10/26 06:04:43;;;;;;;0.60;0.60;;;11.60;99.90;;;;;;5091725;28;20177;-78
2022/10/26 06:07:12;;;;;;;0.40;0.40;;;11.60;99.90;;;;;;5091790;28;20188;-78
2022/10/26 06:09:39;;;;;;;0.40;0.40;;;11.70;99.90;;;;;;5092178;28;20230;-77
2022/10/26 06:12:06;;;;;;;0.50;0.50;;;11.80;99.90;;;;;;5091494;28;20214;-75
2022/10/26 06:14:32;;;;;;;0.50;0.50;;;11.80;99.90;;;;;;5090943;28;20596;-76
2022/10/26 06:17:08;;;;;;;0.60;0.60;;;11.70;99.90;;;;;;5091246;28;20182;-76
2022/10/26 06:20:05;;;;;;;0.60;0.60;;;11.70;99.90;;;;;;5089252;28;20238;-76
2022/10/26 06:23:02;;;;;;;0.50;0.50;;;11.70;99.90;;;;;;5079819;28;20227;-76
2022/10/26 06:25:34;;;;;;;0.50;0.50;;;11.60;99.90;;;;;;5091166;28;20170;-76
2022/10/26 06:28:21;;;;;;;0.50;0.50;;;11.50;99.90;;;;;;5092228;28;20174;-77
2022/10/26 06:30:46;;;;;;;0.60;0.60;;;11.60;99.90;;;;;;5095030;28;20674;-75
2022/10/26 06:33:13;;;;;;;0.50;0.50;;;11.60;99.90;;;;;;5094915;28;20173;-76
2022/10/26 06:35:39;;;;;;;0.50;0.50;;;11.60;99.90;;;;;;5094934;28;20692;-76
2022/10/26 06:38:10;;;;;;;0.60;0.60;;;11.60;99.90;;;;;;5094856;28;20260;-76
2022/10/26 06:40:40;;;;;;;0.50;0.50;;;11.60;99.90;;;;;;5081831;28;20554;-76
2022/10/26 06:43:15;;;;;;;0.50;0.50;;;11.70;99.90;;;;;;5095473;28;20182;-76
2022/10/26 06:45:46;;;;;;;0.50;0.50;;;11.50;99.90;;;;;;5095903;28;20178;-74
2022/10/26 06:48:21;;;;;;;0.50;0.50;;;11.50;99.90;;;;;;5094583;28;20630;-74
2022/10/26 06:50:53;;;;;;;0.50;0.50;;;11.60;99.90;;;;;;5094718;28;20213;-76
2022/10/26 06:53:33;;;;;;;0.40;0.40;;;11.60;99.90;;;;;;5094665;28;20265;-75
2022/10/26 06:55:59;;;;;;;0.50;0.50;;;11.60;99.90;;;;;;5097205;28;20240;-74
2022/10/26 06:58:29;;;;;;;0.50;0.50;;;11.70;99.90;;;;;;5095793;28;20277;-76
2022/10/26 07:00:55;;;;;;;0.50;0.50;;;11.70;99.90;;;;;;5095162;28;20194;-74
2022/10/26 07:03:21;;;;;;;0.50;0.50;;;11.60;99.90;;;;;;5095721;28;20790;-75
2022/10/26 07:05:47;;;;;;;0.50;0.50;;;11.60;99.90;;;;;;5094572;28;20173;-75
2022/10/26 07:08:12;;;;;;;0.50;0.50;;;11.60;99.90;;;;;;5094565;28;20606;-75
2022/10/26 07:10:38;;;;;;;0.40;0.40;;;11.60;99.90;;;;;;5094836;28;20213;-75
2022/10/26 07:13:05;;;;;;;0.40;0.40;;;11.60;99.90;;;;;;5095451;28;20658;-73
2022/10/26 07:15:31;;;;;;;0.60;0.60;;;11.60;99.90;;;;;;5094926;28;20624;-75
2022/10/26 07:17:57;;;;;;;0.50;0.50;;;11.60;99.90;;;;;;5095277;28;20169;-75
2022/10/26 07:20:22;;;;;;;0.60;0.60;;;11.50;99.90;;;;;;5094090;28;20198;-75
2022/10/26 07:22:55;;;;;;;0.50;0.50;;;11.60;99.90;;;;;;5094889;28;20197;-76
2022/10/26 07:25:21;;;;;;;0.47;0.47;;;11.60;99.90;;;;;;5094349;28;20196;-75
2022/10/26 07:27:47;;;;;;;0.50;0.50;;;11.60;99.90;;;;;;5093890;28;20543;-75
2022/10/26 07:30:12;;;;;;;0.50;0.50;;;11.70;99.90;;;;;;5092812;28;20201;-75
2022/10/26 07:32:38;;;;;;;0.50;0.50;;;11.60;99.90;;;;;;5090628;28;20170;-75
2022/10/26 07:35:04;;;;;;;0.40;0.40;;;11.80;99.90;;;;;;5088215;28;20334;-75
2022/10/26 07:37:29;;;;;;;0.50;0.50;;;11.80;99.90;;;;;;5094321;28;20178;-75
2022/10/26 07:39:55;;;;;;;0.50;0.50;;;;;;;;;;5092314;28;20186;-75
2022/10/26 07:42:21;;;;;;;0.50;0.50;;;12.00;99.90;;;;;;5087744;28;20167;-76
2022/10/26 07:44:47;;;;;;;0.50;0.50;;;;;;;;;;5082447;28;20236;-75
2022/10/26 07:47:13;;;;;;;0.50;0.50;;;12.00;99.90;;;;;;5084481;28;20174;-76
2022/10/26 07:49:38;;;;;;;0.60;0.60;;;12.00;99.90;;;;;;5073070;28;20181;-76
2022/10/26 07:52:04;;;;;;;0.40;0.40;;;11.90;99.90;;;;;;5091479;28;20296;-75
2022/10/26 07:54:31;;;;;;;0.50;0.50;;;12.00;99.90;;;;;;5093359;28;20170;-75
2022/10/26 07:56:58;;;;;;;0.50;0.50;;;12.00;99.90;;;;;;5093261;28;20196;-75
2022/10/26 07:59:23;;;;;;;0.53;0.53;;;12.10;99.90;;;;;;5093244;28;20684;-75
2022/10/26 08:01:49;;;;;;;0.50;0.50;;;12.20;99.90;;;;;;5093534;28;20197;-75
2022/10/26 08:04:15;;;;;;;0.50;0.50;;;12.30;99.90;;;;;;5093442;28;20182;-75
2022/10/26 08:06:41;;;;;;;0.60;0.60;;;12.40;99.90;;;;;;5093489;28;20181;-75
2022/10/26 08:09:06;;;;;;;0.40;0.40;;;12.40;99.90;;;;;;5093182;28;20182;-76
2022/10/26 08:11:32;;;;;;;0.60;0.60;;;12.50;99.90;;;;;;5092680;28;20208;-75
2022/10/26 08:13:57;;;;;;;0.50;0.50;;;12.50;99.90;;;;;;5093044;28;20205;-75
2022/10/26 08:16:23;;;;;;;0.50;0.50;;;12.60;99.90;;;;;;5090058;28;20219;-76
2022/10/26 08:18:50;;;;;;;0.40;0.40;;;12.70;99.90;;;;;;5092993;28;20421;-77
2022/10/26 08:21:16;;;;;;;0.38;0.38;;;12.70;99.90;;;;;;5092323;28;20860;-76
2022/10/26 08:23:42;;;;;;;0.60;0.60;;;12.70;99.90;;;;;;5093073;28;20178;-76
2022/10/26 08:26:12;;;;;;;0.50;0.50;;;12.50;99.90;;;;;;5092870;28;20170;-75
2022/10/26 08:28:38;;;;;;;0.60;0.60;;;12.50;99.90;;;;;;5093260;28;20193;-75
2022/10/26 08:31:05;;;;;;;0.50;0.50;;;12.50;99.90;;;;;;5092423;28;20706;-76
2022/10/26 08:33:31;;;;;;;0.40;0.40;;;12.50;99.90;;;;;;5092805;28;20178;-75
2022/10/26 08:35:58;;;;;;;0.60;0.60;;;12.60;99.90;;;;;;5092580;28;20224;-76
2022/10/26 08:38:24;;;;;;;0.30;0.30;;;12.60;99.90;;;;;;5092129;28;20424;-75
2022/10/26 08:40:50;;;;;;;0.40;0.40;;;12.70;99.90;;;;;;5091815;28;20193;-76
2022/10/26 08:43:23;;;;;;;0.50;0.50;;;12.70;99.90;;;;;;5092628;28;20178;-76
2022/10/26 08:46:16;;;;;;;0.40;0.40;;;12.70;99.90;;;;;;5079683;28;20501;-77
2022/10/26 08:48:50;;;;;;;0.50;0.50;;;12.80;99.90;;;;;;5073270;28;20178;-76
2022/10/26 08:51:34;;;;;;;0.43;0.43;;;12.80;99.90;;;;;;5070977;28;20205;-75
2022/10/26 08:54:04;;;;;;;0.50;0.50;;;12.90;99.90;;;;;;5072574;28;20232;-75
2022/10/26 08:56:54;;;;;;;0.40;0.40;;;12.80;99.90;;;;;;5072306;28;20206;-76
2022/10/26 08:59:37;;;;;;;0.40;0.40;;;12.90;99.90;;;;;;5063802;28;20198;-76
2022/10/26 09:02:10;;;;;;;0.40;0.40;;;13.10;99.90;;;;;;5071758;28;20740;-76
2022/10/26 09:04:36;;;;;;;0.40;0.40;;;13.20;99.90;;;;;;5072233;28;20197;-76
2022/10/26 09:07:12;;;;;;;0.40;0.40;;;13.30;99.90;;;;;;5072183;28;20201;-76
2022/10/26 09:10:03;;;;;;;0.40;0.40;;;13.50;99.90;;;;;;5071535;28;20177;-76
2022/10/26 09:12:40;;;;;;;0.40;0.40;;;13.60;99.90;;;;;;5072087;28;20182;-76
2022/10/26 09:15:14;;;;;;;0.50;0.50;;;13.70;99.90;;;;;;5071808;28;20224;-76
2022/10/26 09:18:01;;;;;;;0.50;0.50;;;13.80;99.90;;;;;;5071937;28;20220;-77
2022/10/26 09:20:46;;;;;;;0.50;0.50;;;14.00;99.90;;;;;;5071180;28;20747;-76
2022/10/26 09:23:24;;;;;;;0.40;0.40;;;14.40;99.90;;;;;;5071697;28;20647;-76
2022/10/26 09:25:57;;;;;;;0.40;0.40;;;14.80;99.90;;;;;;5071765;28;20200;-76
2022/10/26 09:28:24;;;;;;;0.43;0.43;;;15.30;99.90;;;;;;5071812;28;20194;-77
2022/10/26 09:30:50;;;;;;;0.40;0.40;;;16.20;99.90;;;;;;5070930;28;20230;-77
2022/10/26 09:33:18;;;;;;;0.40;0.40;;;17.80;85.70;;;;;;5071744;28;20259;-74
2022/10/26 09:35:56;;;;;;;0.40;0.40;;;19.30;99.90;;;;;;5071627;28;20585;-76
2022/10/26 09:38:33;;;;;;;0.30;0.30;;;20.00;99.90;;;;;;5071495;28;20542;-76
2022/10/26 09:41:07;;;;;;;0.30;0.30;;;20.40;1.00;;;;;;5071013;28;20274;-77
2022/10/26 09:43:57;;;;;;;0.30;0.30;;;21.60;99.90;;;;;;5071546;28;20649;-77
2022/10/26 09:46:29;;;;;;;0.40;0.40;;;21.90;1.00;;;;;;5071692;28;20200;-78
2022/10/26 09:48:59;;;;;;;0.50;0.50;;;22.40;99.90;;;;;;5071578;28;20212;-77
2022/10/26 09:51:26;;;;;;;0.57;0.57;;;22.70;99.90;;;;;;5070787;28;20213;-77
2022/10/26 09:53:55;;;;;;;0.60;0.60;;;23.20;99.90;;;;;;5071849;28;20212;-78
2022/10/26 09:56:21;;;;;;;0.50;0.50;;;23.40;99.90;;;;;;5071553;28;20225;-78
2022/10/26 09:58:58;;;;;;;0.67;0.67;;;24.00;96.30;;;;;;5071593;28;20194;-78
2022/10/26 10:01:27;;;;;;;0.50;0.50;;;24.30;1.00;;;;;;5070989;28;20198;-78
2022/10/26 10:04:24;;;;;;;0.70;0.70;;;23.90;1.00;;;;;;5073841;28;20170;-78
2022/10/26 10:07:12;;;;;;;0.50;0.50;;;22.90;28.70;;;;;;5075877;28;20178;-77
2022/10/26 10:09:38;;;;;;;0.50;0.50;;;21.50;1.00;;;;;;5075433;28;20166;-77
2022/10/26 10:12:04;;;;;;;0.50;0.50;;;20.40;99.90;;;;;;5075256;28;20193;-77
2022/10/26 10:14:38;;;;;;;0.50;0.50;;;20.00;1.00;;;;;;5075452;28;20167;-78
2022/10/26 10:17:09;;;;;;;0.40;0.40;;;19.70;1.00;;;;;;5075380;28;20197;-77
2022/10/26 10:19:36;;;;;;;0.50;0.50;;;19.40;99.90;;;;;;5074931;28;20267;-77
2022/10/26 10:22:21;;;;;;;0.30;0.30;;;19.30;1.00;;;;;;5075186;28;20190;-77
2022/10/26 10:24:54;;;;;;;0.40;0.40;;;19.10;1.00;;;;;;5075237;28;20257;-77
2022/10/26 10:27:20;;;;;;;0.23;0.23;;;18.90;1.00;;;;;;5075381;28;20532;-77
2022/10/26 10:29:50;;;;;;;0.30;0.30;;;18.80;99.90;;;;;;5074750;28;20651;-78
2022/10/26 10:32:22;;;;;;;0.40;0.40;;;18.90;99.90;;;;;;5075060;28;20178;-77
2022/10/26 10:34:49;;;;;;;0.30;0.30;;;18.80;99.90;;;;;;5074914;28;20197;-78
2022/10/26 10:37:33;;;;;;;0.30;0.30;;;19.20;1.00;;;;;;5075262;28;20209;-77
2022/10/26 10:40:13;;;;;;;0.30;0.30;;;20.50;99.90;;;;;;5074033;28;20163;-77
2022/10/26 10:42:41;;;;;;;0.30;0.30;;;21.30;1.00;;;;;;5074733;28;20239;-76
2022/10/26 10:45:22;;;;;;;0.40;0.40;;;22.90;99.90;;;;;;5074663;28;20178;-77
2022/10/26 10:48:01;;;;;;;0.40;0.40;;;24.10;1.00;;;;;;5074658;28;20182;-76
2022/10/26 10:50:28;;;;;;;0.30;0.30;;;25.00;1.00;;;;;;5074290;28;20191;-76
2022/10/26 10:53:13;;;;;;;0.50;0.50;;;24.50;1.00;;;;;;5075063;28;20179;-77
2022/10/26 10:55:46;;;;;;;0.50;0.50;;;22.80;99.90;;;;;;5074508;28;20210;-76
2022/10/26 10:58:29;;;;;;;0.43;0.43;;;21.70;1.00;;;;;;5074053;28;20668;-75
2022/10/26 11:00:56;;;;;;;0.40;0.40;;;21.50;99.30;;;;;;5074097;28;20207;-77
2022/10/26 11:03:33;;;;;;;0.40;0.40;;;22.10;1.00;;;;;;5076858;28;20249;-77
2022/10/26 11:06:29;;;;;;;0.40;0.40;;;22.80;99.90;;;;;;5092206;28;20181;-75
2022/10/26 11:09:00;;;;;;;0.40;0.40;;;23.00;99.90;;;;;;5090343;28;20184;-73
2022/10/26 11:11:31;;;;;;;0.50;0.50;;;22.60;99.90;;;;;;5079808;28;20261;-76
2022/10/26 11:14:07;;;;;;;0.40;0.40;;;22.70;99.90;;;;;;5073930;28;20166;-75
2022/10/26 11:16:36;;;;;;;0.43;0.43;;;22.60;99.90;;;;;;5073489;28;20288;-74
2022/10/26 11:19:07;;;;;;;0.40;0.40;;;22.30;99.90;;;;;;5086984;28;20219;-76
2022/10/26 11:21:36;;;;;;;0.40;0.40;;;21.90;99.90;;;;;;5082035;28;20198;-73
2022/10/26 11:24:12;;;;;;;0.40;0.40;;;21.60;99.90;;;;;;5091738;28;20173;-76
2022/10/26 11:26:54;;;;;;;0.40;0.40;;;20.90;1.00;;;;;;5084080;28;20654;-76
2022/10/26 11:29:50;;;;;;;0.30;0.30;;;20.70;99.90;;;;;;5073931;28;20182;-76
2022/10/26 11:32:27;;;;;;;0.40;0.40;;;20.70;60.30;;;;;;5092417;28;20174;-77
2022/10/26 11:35:14;;;;;;;0.33;0.33;;;20.50;1.00;;;;;;5094047;28;20200;-75
2022/10/26 11:37:59;;;;;;;0.40;0.40;;;20.40;1.00;;;;;;5093821;28;20182;-75
2022/10/26 11:40:55;;;;;;;0.23;0.23;;;20.20;99.90;;;;;;5093575;28;20568;-75
2022/10/26 11:43:29;;;;;;;0.40;0.40;;;20.30;99.90;;;;;;5094081;28;20191;-75
2022/10/26 11:46:01;;;;;;;0.30;0.30;;;20.20;1.00;;;;;;5093342;28;20177;-75
2022/10/26 11:48:53;;;;;;;0.40;0.40;;;20.20;1.00;;;;;;5081436;28;20259;-75
2022/10/26 11:51:48;;;;;;;0.30;0.30;;;20.20;1.00;;;;;;5068757;28;20650;-74
2022/10/26 11:54:27;;;;;;;0.30;0.30;;;20.50;80.20;;;;;;5073444;28;20194;-76
2022/10/26 11:56:55;;;;;;;0.40;0.40;;;20.60;1.00;;;;;;5073640;28;20340;-74
2022/10/26 11:59:24;;;;;;;0.40;0.40;;;20.70;99.90;;;;;;5073169;28;20198;-76
2022/10/26 12:02:10;;;;;;;0.40;0.40;;;20.80;1.00;;;;;;5072918;28;20281;-76
2022/10/26 12:04:37;;;;;;;0.40;0.40;;;20.80;1.00;;;;;;5073227;28;20182;-75
2022/10/26 12:07:11;;;;;;;0.30;0.30;;;21.30;1.00;;;;;;5073112;28;20183;-75
2022/10/26 12:09:40;;;;;;;0.30;0.30;;;21.40;99.90;;;;;;5072616;28;20175;-76
2022/10/26 12:12:26;;;;;;;0.30;0.30;;;21.70;99.90;;;;;;5072948;28;20201;-75
2022/10/26 12:15:13;;;;;;;0.30;0.30;;;21.60;99.90;;;;;;5072884;28;20181;-76
2022/10/26 12:17:43;;;;;;;0.30;0.30;;;21.50;99.90;;;;;;5071529;28;20175;-76
2022/10/26 12:20:46;;;;;;;0.40;0.40;;;21.10;99.90;;;;;;5072443;28;20182;-75
2022/10/26 12:23:12;;;;;;;0.40;0.40;;;20.70;1.00;;;;;;5072954;28;20265;-76
2022/10/26 12:25:38;;;;;;;0.30;0.30;;;20.60;1.00;;;;;;5072557;28;20206;-77
2022/10/26 12:28:04;;;;;;;0.43;0.43;;;20.50;1.00;;;;;;5072928;28;20171;-77
2022/10/26 12:30:32;;;;;;;0.37;0.37;;;20.60;1.00;;;;;;5072124;28;20742;-75
2022/10/26 12:33:26;;;;;;;0.40;0.40;;;20.90;1.00;;;;;;5072826;28;20175;-75
2022/10/26 12:35:52;;;;;;;0.40;0.40;;;20.80;1.00;;;;;;5072587;28;20559;-75
2022/10/26 12:38:20;;;;;;;0.40;0.40;;;20.70;1.00;;;;;;5072363;28;20177;-76
2022/10/26 12:40:47;;;;;;;0.30;0.30;;;20.60;99.90;;;;;;5071973;28;20240;-75
2022/10/26 12:43:12;;;;;;;0.40;0.40;;;20.60;99.90;;;;;;5072563;28;20174;-76
2022/10/26 12:45:42;;;;;;;0.30;0.30;;;20.70;1.00;;;;;;5072445;28;20761;-75
2022/10/26 12:48:37;;;;;;;0.30;0.30;;;20.60;99.90;;;;;;5071938;28;20776;-75
2022/10/26 12:51:20;;;;;;;0.30;0.30;;;20.50;99.90;;;;;;5071472;28;20221;-74
2022/10/26 12:54:14;;;;;;;0.30;0.30;;;20.40;99.90;;;;;;5072495;28;20177;-75
2022/10/26 12:56:54;;;;;;;0.30;0.30;;;20.40;1.00;;;;;;5070998;28;20671;-75
2022/10/26 12:59:42;;;;;;;0.30;0.30;;;20.40;99.90;;;;;;5072107;28;20194;-74
2022/10/26 13:02:19;;;;;;;0.30;0.30;;;20.50;1.00;;;;;;5080770;28;20213;-76
2022/10/26 13:04:57;;;;;;;0.40;0.40;;;20.60;1.00;;;;;;5092583;28;20201;-75
2022/10/26 13:07:24;;;;;;;0.40;0.40;;;20.80;99.90;;;;;;5092492;28;20173;-74
2022/10/26 13:10:04;;;;;;;0.30;0.30;;;20.80;99.90;;;;;;5092339;28;20177;-75
2022/10/26 13:12:47;;;;;;;0.30;0.30;;;20.80;1.00;;;;;;5092321;28;20197;-75